Time;durP1;ratioP1;P1;durP2;ratioP2;P2;SDS_P1;SDS_P2;PMS_P1;PMS_P2;Temp;Humidity;BMP_temperature;BMP_pressure;BME280_temperature;BME280_humidity;BME280_pressure;Samples;Min_cycle;Max_cycle;Signal;HPM_P1;HPM_P2
2022/05/24 00:01:16;;;;;;;;;0.00;0.00;;;;;;;;5110184;27;62464;-76
2022/05/24 00:03:41;;;;;;;;;0.00;0.00;;;;;;;;5105399;27;61875;-76
2022/05/24 00:06:06;;;;;;;;;0.50;0.50;;;;;;;;5103249;27;63831;-76
2022/05/24 00:08:32;;;;;;;;;2.25;1.00;;;;;;;;5119273;27;61962;-76
2022/05/24 00:10:57;;;;;;;;;0.50;0.25;;;;;;;;5124177;27;62255;-76
2022/05/24 00:13:23;;;;;;;;;0.25;0.25;;;;;;;;5124575;27;61896;-76
2022/05/24 00:15:48;;;;;;;;;1.00;1.00;;;;;;;;5124681;27;61733;-76
2022/05/24 00:18:16;;;;;;;;;0.75;0.00;;;;;;;;5124834;27;61801;-76
2022/05/24 00:20:47;;;;;;;;;0.00;0.00;;;;;;;;5125151;27;61725;-76
2022/05/24 00:23:13;;;;;;;;;1.50;1.00;;;;;;;;5123038;27;61849;-76
2022/05/24 00:25:45;;;;;;;;;2.25;1.00;;;;;;;;5124214;27;63079;-76
2022/05/24 00:28:11;;;;;;;;;2.00;1.00;;;;;;;;5125233;27;61816;-76
2022/05/24 00:30:36;;;;;;;;;1.00;1.00;;;;;;;;5124321;27;61771;-76
2022/05/24 00:33:02;;;;;;;;;2.00;0.25;;;;;;;;5123280;27;61785;-76
2022/05/24 00:35:27;;;;;;;;;1.75;1.00;;;;;;;;5123490;27;64949;-75
2022/05/24 00:37:53;;;;;;;;;5.75;1.75;;;;;;;;5124574;27;62099;-76
2022/05/24 00:40:33;;;;;;;;;0.75;0.75;;;;;;;;5125034;27;61862;-76
2022/05/24 00:43:02;;;;;;;;;2.50;1.00;;;;;;;;5125287;27;61824;-76
2022/05/24 00:45:34;;;;;;;;;1.00;1.00;;;;;;;;5123917;27;61897;-76
2022/05/24 00:48:03;;;;;;;;;1.00;1.00;;;;;;;;5124904;27;62094;-76
2022/05/24 00:50:31;;;;;;;;;0.75;0.75;;;;;;;;5123929;27;61820;-76
2022/05/24 00:53:02;;;;;;;;;0.00;0.00;;;;;;;;5123107;27;62127;-76
2022/05/24 00:55:29;;;;;;;;;0.25;0.25;;;;;;;;5124499;27;62007;-76
2022/05/24 00:57:54;;;;;;;;;1.00;1.00;;;;;;;;5123427;27;62219;-76
2022/05/24 01:00:21;;;;;;;;;1.00;1.00;;;;;;;;5117732;27;61954;-76
2022/05/24 01:02:47;;;;;;;;;1.00;1.00;;;;;;;;5103426;27;61929;-75
2022/05/24 01:05:14;;;;;;;;;0.50;0.50;;;;;;;;5103807;27;61799;-76
2022/05/24 01:07:40;;;;;;;;;1.75;1.00;;;;;;;;5110746;27;61916;-75
2022/05/24 01:10:20;;;;;;;;;0.25;0.25;;;;;;;;5124907;27;61876;-76
2022/05/24 01:12:51;;;;;;;;;1.00;1.00;;;;;;;;5123650;27;62050;-76
2022/05/24 01:15:17;;;;;;;;;1.00;1.00;;;;;;;;5122752;27;63790;-76
2022/05/24 01:17:43;;;;;;;;;0.00;0.00;;;;;;;;5124683;27;62030;-76
2022/05/24 01:20:09;;;;;;;;;1.25;0.50;;;;;;;;5124712;27;61689;-76
2022/05/24 01:22:41;;;;;;;;;1.00;1.00;;;;;;;;5124487;27;62381;-76
2022/05/24 01:25:10;;;;;;;;;0.00;0.00;;;;;;;;5123846;27;63331;-76
2022/05/24 01:27:36;;;;;;;;;1.00;1.00;;;;;;;;5124508;27;61796;-75
2022/05/24 01:30:03;;;;;;;;;2.00;1.00;;;;;;;;5124359;27;61776;-76
2022/05/24 01:37:57;;;;;;;;;0.00;0.00;;;;;;;;5123317;27;62108;-76
2022/05/24 01:40:22;;;;;;;;;2.00;1.00;;;;;;;;5124392;27;61741;-76
2022/05/24 01:42:48;;;;;;;;;1.00;0.00;;;;;;;;5124829;27;61749;-76
2022/05/24 01:45:18;;;;;;;;;0.00;0.00;;;;;;;;5123385;27;62167;-76
2022/05/24 01:47:45;;;;;;;;;0.00;0.00;;;;;;;;5124386;27;61686;-76
2022/05/24 01:50:14;;;;;;;;;1.00;0.00;;;;;;;;5122825;27;61919;-76
2022/05/24 01:52:42;;;;;;;;;1.25;1.25;;;;;;;;5124008;27;62049;-76
2022/05/24 01:55:10;;;;;;;;;0.00;0.00;;;;;;;;5122976;27;62822;-76
2022/05/24 01:57:42;;;;;;;;;0.75;0.00;;;;;;;;5122833;27;61724;-76
2022/05/24 02:00:09;;;;;;;;;1.00;0.75;;;;;;;;5123928;27;61819;-76
2022/05/24 02:02:34;;;;;;;;;1.50;0.50;;;;;;;;5124216;27;62032;-76
2022/05/24 02:05:00;;;;;;;;;0.25;0.00;;;;;;;;5122027;27;63125;-76
2022/05/24 02:07:25;;;;;;;;;0.00;0.00;;;;;;;;5123278;27;62135;-76
2022/05/24 02:09:53;;;;;;;;;1.50;0.25;;;;;;;;5124277;27;61774;-76
2022/05/24 02:12:24;;;;;;;;;0.50;0.00;;;;;;;;5123581;27;62398;-76
2022/05/24 02:15:01;;;;;;;;;0.00;0.00;;;;;;;;5121944;27;64850;-76
2022/05/24 02:17:29;;;;;;;;;1.00;0.00;;;;;;;;5122635;27;62192;-76
2022/05/24 02:19:56;;;;;;;;;1.75;1.00;;;;;;;;5122993;27;62122;-76
2022/05/24 02:22:23;;;;;;;;;3.00;0.00;;;;;;;;5123456;27;61735;-76
2022/05/24 02:25:06;;;;;;;;;0.00;0.00;;;;;;;;5123345;27;61728;-76
2022/05/24 02:27:37;;;;;;;;;0.00;0.00;;;;;;;;5123344;27;61732;-76
2022/05/24 02:30:03;;;;;;;;;0.25;0.25;;;;;;;;5122795;27;61907;-76
2022/05/24 02:32:28;;;;;;;;;2.00;0.00;;;;;;;;5123528;27;62006;-76
2022/05/24 02:34:53;;;;;;;;;0.75;0.00;;;;;;;;5122904;27;62679;-76
2022/05/24 02:37:19;;;;;;;;;0.00;0.00;;;;;;;;5122763;27;61810;-76
2022/05/24 02:42:30;;;;;;;;;0.00;0.00;;;;;;;;5123209;27;61732;-76
2022/05/24 02:44:55;;;;;;;;;0.00;0.00;;;;;;;;5122948;27;61929;-76
2022/05/24 02:47:21;;;;;;;;;0.00;0.00;;;;;;;;5123338;27;61859;-76
2022/05/24 02:49:46;;;;;;;;;1.75;1.00;;;;;;;;5123555;27;62443;-76
2022/05/24 02:52:11;;;;;;;;;1.00;0.00;;;;;;;;5122988;27;61672;-76
2022/05/24 02:54:36;;;;;;;;;1.00;1.00;;;;;;;;5122610;27;61637;-76
2022/05/24 02:57:04;;;;;;;;;1.00;1.00;;;;;;;;5122968;27;61912;-76
2022/05/24 02:59:30;;;;;;;;;0.75;0.25;;;;;;;;5122871;27;61952;-76
2022/05/24 03:01:55;;;;;;;;;0.25;0.25;;;;;;;;5102399;27;61940;-76
2022/05/24 03:04:20;;;;;;;;;2.00;1.00;;;;;;;;5101919;27;61963;-76
2022/05/24 03:09:36;;;;;;;;;0.00;0.00;;;;;;;;5102556;27;61730;-76
2022/05/24 03:14:48;;;;;;;;;1.00;1.00;;;;;;;;5101977;27;61932;-76
2022/05/24 03:17:13;;;;;;;;;0.00;0.00;;;;;;;;5102438;27;61804;-76
2022/05/24 03:19:39;;;;;;;;;1.50;0.50;;;;;;;;5102176;27;61762;-76
2022/05/24 03:22:05;;;;;;;;;0.00;0.00;;;;;;;;5102013;27;61708;-76
2022/05/24 03:24:30;;;;;;;;;0.25;0.25;;;;;;;;5101559;27;62243;-76
2022/05/24 03:26:55;;;;;;;;;1.00;0.00;;;;;;;;5102195;27;61776;-76
2022/05/24 03:29:20;;;;;;;;;2.00;1.00;;;;;;;;5102247;27;61853;-76
2022/05/24 03:31:46;;;;;;;;;0.00;0.00;;;;;;;;5100266;27;62262;-76
2022/05/24 03:34:11;;;;;;;;;2.75;1.50;;;;;;;;5101550;27;62781;-76
2022/05/24 03:36:36;;;;;;;;;0.75;0.75;;;;;;;;5100207;27;62032;-76
2022/05/24 03:39:01;;;;;;;;;2.00;0.50;;;;;;;;5101483;27;61886;-76
2022/05/24 03:41:27;;;;;;;;;0.00;0.00;;;;;;;;5100094;27;61946;-76
2022/05/24 03:43:52;;;;;;;;;1.00;0.75;;;;;;;;5101333;27;61748;-76
2022/05/24 03:46:18;;;;;;;;;1.00;1.00;;;;;;;;5101978;27;61981;-76
2022/05/24 03:48:43;;;;;;;;;3.00;0.00;;;;;;;;5101871;27;61803;-76
2022/05/24 03:51:09;;;;;;;;;1.00;1.00;;;;;;;;5101859;27;62032;-76
2022/05/24 03:53:34;;;;;;;;;0.25;0.25;;;;;;;;5113890;27;61796;-76
2022/05/24 03:56:00;;;;;;;;;2.00;0.00;;;;;;;;5120822;27;61823;-76
2022/05/24 03:58:25;;;;;;;;;1.00;0.00;;;;;;;;5120797;27;61746;-76
2022/05/24 04:00:50;;;;;;;;;2.00;0.00;;;;;;;;5117733;27;61721;-76
2022/05/24 04:03:16;;;;;;;;;0.00;0.00;;;;;;;;5099447;27;63730;-76
2022/05/24 04:05:42;;;;;;;;;0.00;0.00;;;;;;;;5101398;27;62095;-76
2022/05/24 04:08:08;;;;;;;;;0.00;0.00;;;;;;;;5112073;27;61878;-76
2022/05/24 04:10:34;;;;;;;;;0.00;0.00;;;;;;;;5122215;27;61742;-76
2022/05/24 04:13:00;;;;;;;;;0.00;0.00;;;;;;;;5121141;27;62222;-76
2022/05/24 04:15:25;;;;;;;;;1.75;0.00;;;;;;;;5122031;27;61755;-76
2022/05/24 04:17:51;;;;;;;;;0.00;0.00;;;;;;;;5122027;27;61871;-76
2022/05/24 04:20:16;;;;;;;;;0.00;0.00;;;;;;;;5124611;27;62066;-76
2022/05/24 04:22:43;;;;;;;;;0.00;0.00;;;;;;;;5124592;27;61930;-76
2022/05/24 04:25:09;;;;;;;;;0.00;0.00;;;;;;;;5125431;27;61767;-75
2022/05/24 04:27:34;;;;;;;;;0.00;0.00;;;;;;;;5123641;27;61904;-76
2022/05/24 04:29:59;;;;;;;;;0.00;0.00;;;;;;;;5124428;27;61870;-76
2022/05/24 04:32:25;;;;;;;;;2.25;0.00;;;;;;;;5124537;27;63096;-76
2022/05/24 04:34:50;;;;;;;;;3.00;0.00;;;;;;;;5125105;27;62022;-76
2022/05/24 04:37:15;;;;;;;;;0.00;0.00;;;;;;;;5124547;27;62242;-76
2022/05/24 04:39:41;;;;;;;;;1.50;0.50;;;;;;;;5123520;27;61912;-76
2022/05/24 04:42:18;;;;;;;;;0.00;0.00;;;;;;;;5124596;27;61917;-76
2022/05/24 04:44:44;;;;;;;;;0.00;0.00;;;;;;;;5123813;27;62145;-76
2022/05/24 04:47:10;;;;;;;;;0.75;0.75;;;;;;;;5125294;27;61841;-76
2022/05/24 04:49:37;;;;;;;;;1.00;0.00;;;;;;;;5123953;27;61858;-76
2022/05/24 04:52:03;;;;;;;;;0.00;0.00;;;;;;;;5123693;27;61933;-76
2022/05/24 04:54:28;;;;;;;;;0.00;0.00;;;;;;;;5124515;27;61953;-76
2022/05/24 04:56:53;;;;;;;;;1.00;0.00;;;;;;;;5124795;27;61917;-76
2022/05/24 04:59:19;;;;;;;;;0.00;0.00;;;;;;;;5125395;27;61914;-76
2022/05/24 05:01:44;;;;;;;;;0.50;0.00;;;;;;;;5118550;27;65015;-75
2022/05/24 05:04:09;;;;;;;;;0.00;0.00;;;;;;;;5102953;27;61864;-76
2022/05/24 05:06:35;;;;;;;;;2.00;0.00;;;;;;;;5113974;27;62169;-76
2022/05/24 05:09:00;;;;;;;;;3.00;0.00;;;;;;;;5122833;27;62011;-76
2022/05/24 05:11:25;;;;;;;;;1.00;0.00;;;;;;;;5120888;27;62369;-75
2022/05/24 05:13:51;;;;;;;;;0.00;0.00;;;;;;;;5122857;27;61921;-77
2022/05/24 05:16:16;;;;;;;;;0.00;0.00;;;;;;;;5124928;27;61926;-76
2022/05/24 05:18:41;;;;;;;;;0.00;0.00;;;;;;;;5123382;27;61767;-77
2022/05/24 05:21:07;;;;;;;;;0.00;0.00;;;;;;;;5124118;27;61716;-76
2022/05/24 05:23:32;;;;;;;;;0.00;0.00;;;;;;;;5123998;27;61963;-76
2022/05/24 05:25:58;;;;;;;;;0.00;0.00;;;;;;;;5124846;27;62060;-76
2022/05/24 05:28:23;;;;;;;;;0.00;0.00;;;;;;;;5124802;27;62056;-75
2022/05/24 05:33:33;;;;;;;;;0.00;0.00;;;;;;;;5124331;27;61850;-76
2022/05/24 05:35:58;;;;;;;;;0.75;0.00;;;;;;;;5122756;27;62330;-78
2022/05/24 05:38:23;;;;;;;;;1.00;0.00;;;;;;;;5123860;27;62064;-77
2022/05/24 05:40:49;;;;;;;;;0.00;0.00;;;;;;;;5122901;27;62016;-77
2022/05/24 05:43:15;;;;;;;;;0.00;0.00;;;;;;;;5121821;27;61917;-76
2022/05/24 05:45:40;;;;;;;;;0.00;0.00;;;;;;;;5124432;27;61696;-76
2022/05/24 05:48:05;;;;;;;;;0.00;0.00;;;;;;;;5123815;27;61711;-76
2022/05/24 05:50:31;;;;;;;;;0.00;0.00;;;;;;;;5122028;27;63345;-77
2022/05/24 05:52:56;;;;;;;;;0.00;0.00;;;;;;;;5123114;27;61764;-77
2022/05/24 05:55:22;;;;;;;;;0.00;0.00;;;;;;;;5124432;27;61888;-77
2022/05/24 05:57:48;;;;;;;;;0.00;0.00;;;;;;;;5123960;27;61756;-76
2022/05/24 06:00:13;;;;;;;;;1.00;1.00;;;;;;;;5118537;27;64725;-77
2022/05/24 06:02:39;;;;;;;;;0.00;0.00;;;;;;;;5103188;27;61759;-75
2022/05/24 06:05:05;;;;;;;;;0.00;0.00;;;;;;;;5106525;27;61734;-75
2022/05/24 06:07:30;;;;;;;;;0.00;0.00;;;;;;;;5122868;27;62194;-75
2022/05/24 06:09:55;;;;;;;;;0.00;0.00;;;;;;;;5122737;27;62309;-75
2022/05/24 06:12:20;;;;;;;;;0.00;0.00;;;;;;;;5122785;27;62018;-75
2022/05/24 06:14:46;;;;;;;;;0.00;0.00;;;;;;;;5123811;27;61827;-75
2022/05/24 06:17:12;;;;;;;;;1.00;1.00;;;;;;;;5122078;27;61720;-75
2022/05/24 06:19:37;;;;;;;;;0.00;0.00;;;;;;;;5122061;27;61985;-75
2022/05/24 06:22:02;;;;;;;;;0.00;0.00;;;;;;;;5122589;27;61777;-75
2022/05/24 06:24:28;;;;;;;;;1.00;0.00;;;;;;;;5123390;27;62183;-75
2022/05/24 06:26:53;;;;;;;;;0.00;0.00;;;;;;;;5124057;27;61963;-75
2022/05/24 06:29:19;;;;;;;;;0.00;0.00;;;;;;;;5122587;27;62841;-78
2022/05/24 06:31:44;;;;;;;;;0.00;0.00;;;;;;;;5123583;27;62119;-83
2022/05/24 06:34:10;;;;;;;;;0.00;0.00;;;;;;;;5122194;27;62068;-75
2022/05/24 06:36:35;;;;;;;;;1.50;0.00;;;;;;;;5122422;27;62024;-76
2022/05/24 06:39:01;;;;;;;;;0.00;0.00;;;;;;;;5122394;27;61757;-76
2022/05/24 06:41:26;;;;;;;;;0.00;0.00;;;;;;;;5123560;27;61806;-75
2022/05/24 06:43:51;;;;;;;;;2.25;1.00;;;;;;;;5121458;27;61799;-77
2022/05/24 06:46:16;;;;;;;;;0.00;0.00;;;;;;;;5121845;27;61838;-75
2022/05/24 06:48:45;;;;;;;;;0.00;0.00;;;;;;;;5121279;27;64895;-77
2022/05/24 06:51:14;;;;;;;;;0.50;0.00;;;;;;;;5122905;27;62155;-79
2022/05/24 06:53:41;;;;;;;;;0.00;0.00;;;;;;;;5121916;27;61698;-76
2022/05/24 06:56:07;;;;;;;;;0.00;0.00;;;;;;;;5120181;27;62094;-75
2022/05/24 06:58:32;;;;;;;;;1.00;0.00;;;;;;;;5119155;27;63916;-76
2022/05/24 07:03:41;;;;;;;;;0.50;0.50;;;;;;;;5121769;27;61793;-76
2022/05/24 07:06:07;;;;;;;;;0.00;0.00;;;;;;;;5122342;27;62157;-76
2022/05/24 07:08:32;;;;;;;;;0.00;0.00;;;;;;;;5120173;27;64839;-76
2022/05/24 07:10:57;;;;;;;;;0.00;0.00;;;;;;;;5123242;27;61836;-76
2022/05/24 07:13:22;;;;;;;;;0.00;0.00;;;;;;;;5122974;27;61902;-76
2022/05/24 07:15:48;;;;;;;;;0.00;0.00;;;;;;;;5122133;27;61966;-76
2022/05/24 07:18:14;;;;;;;;;1.00;0.00;;;;;;;;5122158;27;62595;-76
2022/05/24 07:20:39;;;;;;;;;1.25;0.00;;;;;;;;5121757;27;61944;-76
2022/05/24 07:23:07;;;;;;;;;0.00;0.00;;;;;;;;5122374;27;61986;-76
2022/05/24 07:25:32;;;;;;;;;0.50;0.00;;;;;;;;5123441;27;61924;-76
2022/05/24 07:27:57;;;;;;;;;0.00;0.00;;;;;;;;5120850;27;63715;-76
2022/05/24 07:30:22;;;;;;;;;0.00;0.00;;;;;;;;5122945;27;61924;-76
2022/05/24 07:32:48;;;;;;;;;0.00;0.00;;;;;;;;5121142;27;61877;-76
2022/05/24 07:35:13;;;;;;;;;0.00;0.00;;;;;;;;5123009;27;61739;-76
2022/05/24 07:37:38;;;;;;;;;1.75;0.50;;;;;;;;5121880;27;61849;-76
2022/05/24 07:48:03;;;;;;;;;0.00;0.00;;;;;;;;5121900;27;61929;-76
2022/05/24 07:50:28;;;;;;;;;0.00;0.00;;;;;;;;5122417;27;61715;-76
2022/05/24 07:52:54;;;;;;;;;0.00;0.00;;;;;;;;5121699;27;62001;-76
2022/05/24 07:55:19;;;;;;;;;0.00;0.00;;;;;;;;5124820;27;61982;-76
2022/05/24 07:57:44;;;;;;;;;1.00;0.00;;;;;;;;5125509;27;62899;-76
2022/05/24 08:00:10;;;;;;;;;0.00;0.00;;;;;;;;5126429;27;61912;-76
2022/05/24 08:02:35;;;;;;;;;0.75;0.00;;;;;;;;5125680;27;61867;-76
2022/05/24 08:05:01;;;;;;;;;0.00;0.00;;;;;;;;5126515;27;61858;-76
2022/05/24 08:07:26;;;;;;;;;0.00;0.00;;;;;;;;5124716;27;61925;-76
2022/05/24 08:09:51;;;;;;;;;0.25;0.00;;;;;;;;5126226;27;61739;-76
2022/05/24 08:12:16;;;;;;;;;0.00;0.00;;;;;;;;5124211;27;62029;-76
2022/05/24 08:14:42;;;;;;;;;0.00;0.00;;;;;;;;5125030;27;62118;-76
2022/05/24 08:17:07;;;;;;;;;0.00;0.00;;;;;;;;5123732;27;63641;-76
2022/05/24 08:19:33;;;;;;;;;0.75;0.00;;;;;;;;5125925;27;61936;-76
2022/05/24 08:21:58;;;;;;;;;0.00;0.00;;;;;;;;5125927;27;61730;-76
2022/05/24 08:24:23;;;;;;;;;0.00;0.00;;;;;;;;5124371;27;61926;-77
2022/05/24 08:26:49;;;;;;;;;0.00;0.00;;;;;;;;5125365;27;62567;-76
2022/05/24 08:29:14;;;;;;;;;0.00;0.00;;;;;;;;5125910;27;61943;-76
2022/05/24 08:31:39;;;;;;;;;0.00;0.00;;;;;;;;5125291;27;61890;-76
2022/05/24 08:34:04;;;;;;;;;2.00;1.00;;;;;;;;5126044;27;61915;-77
2022/05/24 08:36:30;;;;;;;;;1.00;0.00;;;;;;;;5123499;27;63612;-76
2022/05/24 08:38:55;;;;;;;;;0.00;0.00;;;;;;;;5125266;27;61759;-76
2022/05/24 08:41:26;;;;;;;;;0.00;0.00;;;;;;;;5125808;27;61924;-76
2022/05/24 08:48:22;;;;;;;;;0.00;0.00;;;;;;;;5125732;27;61715;-76
2022/05/24 08:49:30;;;;;;;;;0.00;0.00;;;;;;;;5125368;27;61869;-77
2022/05/24 08:51:58;;;;;;;;;0.00;0.00;;;;;;;;5123978;27;61764;-76
2022/05/24 08:54:35;;;;;;;;;0.75;0.00;;;;;;;;5125068;27;62014;-77
2022/05/24 08:57:09;;;;;;;;;0.00;0.00;;;;;;;;5124676;27;62826;-77
2022/05/24 08:59:37;;;;;;;;;0.00;0.00;;;;;;;;5123472;27;61833;-76
2022/05/24 09:02:04;;;;;;;;;1.50;0.00;;;;;;;;5125305;27;61824;-76
2022/05/24 09:04:30;;;;;;;;;0.00;0.00;;;;;;;;5125498;27;61772;-76
2022/05/24 09:07:04;;;;;;;;;0.00;0.00;;;;;;;;5122744;27;64709;-76
2022/05/24 09:09:32;;;;;;;;;1.00;0.00;;;;;;;;5124857;27;61833;-76
2022/05/24 09:11:59;;;;;;;;;0.00;0.00;;;;;;;;5124968;27;61979;-76
2022/05/24 09:14:27;;;;;;;;;0.00;0.00;;;;;;;;5123588;27;61885;-77
2022/05/24 09:17:01;;;;;;;;;0.50;0.00;;;;;;;;5124609;27;61729;-76
2022/05/24 09:19:33;;;;;;;;;0.25;0.25;;;;;;;;5125026;27;61728;-77
2022/05/24 09:22:00;;;;;;;;;0.50;0.50;;;;;;;;5125125;27;61688;-76
2022/05/24 09:24:46;;;;;;;;;0.00;0.00;;;;;;;;5124779;27;62077;-76
2022/05/24 09:27:17;;;;;;;;;0.00;0.00;;;;;;;;5124414;27;61681;-76
2022/05/24 09:29:48;;;;;;;;;2.00;0.00;;;;;;;;5124344;27;61788;-77
2022/05/24 09:32:15;;;;;;;;;0.00;0.00;;;;;;;;5124814;27;61869;-76
2022/05/24 09:34:40;;;;;;;;;0.00;0.00;;;;;;;;5124768;27;61728;-76
2022/05/24 09:37:20;;;;;;;;;0.75;0.25;;;;;;;;5124027;27;62124;-76
2022/05/24 09:39:56;;;;;;;;;0.00;0.00;;;;;;;;5124652;27;62090;-76
2022/05/24 09:42:28;;;;;;;;;0.00;0.00;;;;;;;;5124243;27;62007;-77
2022/05/24 09:45:01;;;;;;;;;0.00;0.00;;;;;;;;5124832;27;61682;-77
2022/05/24 09:47:26;;;;;;;;;0.00;0.00;;;;;;;;5122585;27;63799;-76
2022/05/24 09:49:52;;;;;;;;;0.00;0.00;;;;;;;;5122997;27;62085;-76
2022/05/24 09:52:17;;;;;;;;;0.00;0.00;;;;;;;;5124166;27;61814;-77
2022/05/24 09:54:57;;;;;;;;;0.00;0.00;;;;;;;;5124286;27;62118;-76
2022/05/24 09:57:24;;;;;;;;;0.00;0.00;;;;;;;;5123689;27;61867;-77
2022/05/24 10:00:09;;;;;;;;;0.00;0.00;;;;;;;;5124094;27;61806;-77
2022/05/24 10:02:34;;;;;;;;;0.50;0.00;;;;;;;;5124071;27;61827;-76
2022/05/24 10:05:02;;;;;;;;;0.00;0.00;;;;;;;;5122450;27;61805;-76
2022/05/24 10:07:29;;;;;;;;;0.25;0.00;;;;;;;;5123041;27;63070;-76
2022/05/24 10:10:00;;;;;;;;;0.00;0.00;;;;;;;;5124131;27;62046;-76
2022/05/24 10:12:32;;;;;;;;;0.00;0.00;;;;;;;;5122134;27;62079;-75
2022/05/24 10:15:09;;;;;;;;;0.00;0.00;;;;;;;;5122841;27;61806;-76
2022/05/24 10:17:40;;;;;;;;;0.00;0.00;;;;;;;;5121014;27;64821;-76
2022/05/24 10:20:21;;;;;;;;;1.00;0.00;;;;;;;;5123231;27;61828;-75
2022/05/24 10:22:46;;;;;;;;;0.00;0.00;;;;;;;;5123336;27;62103;-75
2022/05/24 10:25:24;;;;;;;;;0.00;0.00;;;;;;;;5123978;27;61966;-76
2022/05/24 10:27:55;;;;;;;;;0.00;0.00;;;;;;;;5122741;27;61840;-75
2022/05/24 10:30:24;;;;;;;;;0.00;0.00;;;;;;;;5121885;27;61825;-75
2022/05/24 10:38:24;;;;;;;;;0.00;0.00;;;;;;;;5119643;27;62028;-75
2022/05/24 10:41:12;;;;;;;;;0.00;0.00;;;;;;;;5123461;27;61798;-75
2022/05/24 10:43:59;;;;;;;;;0.00;0.00;;;;;;;;5037675;28;61993;-76
2022/05/24 10:46:46;;;;;;;;;0.00;0.00;;;;;;;;5019555;28;62070;-75
2022/05/24 10:49:34;;;;;;;;;0.00;0.00;;;;;;;;5019524;28;63821;-75
2022/05/24 10:52:17;;;;;;;;;1.50;0.00;;;;;;;;5037585;28;61953;-76
2022/05/24 10:54:47;;;;;;;;;1.00;0.00;;;;;;;;5019518;28;61857;-76
2022/05/24 10:57:26;;;;;;;;;0.00;0.00;;;;;;;;5021450;28;62028;-75
2022/05/24 10:59:51;;;;;;;;;0.00;0.00;;;;;;;;5036118;28;61973;-76
2022/05/24 11:02:35;;;;;;;;;0.00;0.00;;;;;;;;5021053;28;61959;-76
2022/05/24 11:05:10;;;;;;;;;1.00;1.00;;;;;;;;5021161;28;62398;-76
2022/05/24 11:07:36;;;;;;;;;0.00;0.00;;;;;;;;5020525;28;61970;-76
2022/05/24 11:10:05;;;;;;;;;2.00;0.00;;;;;;;;5036808;28;62458;-75
2022/05/24 11:12:32;;;;;;;;;0.00;0.00;;;;;;;;5020764;28;61930;-76
2022/05/24 11:15:04;;;;;;;;;1.00;0.00;;;;;;;;5037847;28;61899;-76
2022/05/24 11:17:29;;;;;;;;;0.00;0.00;;;;;;;;5021518;28;61879;-75
2022/05/24 11:19:55;;;;;;;;;0.00;0.00;;;;;;;;5051159;27;62010;-75
2022/05/24 11:22:24;;;;;;;;;0.75;0.00;;;;;;;;5121089;27;61925;-75
2022/05/24 11:24:52;;;;;;;;;0.00;0.00;;;;;;;;5121158;27;62177;-75
2022/05/24 11:27:22;;;;;;;;;1.00;0.00;;;;;;;;5122437;27;62122;-75
2022/05/24 11:29:57;;;;;;;;;0.00;0.00;;;;;;;;5123675;27;64924;-75
2022/05/24 11:32:37;;;;;;;;;0.00;0.00;;;;;;;;5120884;27;61854;-76
2022/05/24 11:35:11;;;;;;;;;1.00;0.00;;;;;;;;5119329;27;61947;-76
2022/05/24 11:37:38;;;;;;;;;0.00;0.00;;;;;;;;5125664;27;61957;-76
2022/05/24 11:40:23;;;;;;;;;0.00;0.00;;;;;;;;5123886;27;63819;-76
2022/05/24 11:42:48;;;;;;;;;0.00;0.00;;;;;;;;5125946;27;61854;-76
2022/05/24 11:45:28;;;;;;;;;0.00;0.00;;;;;;;;5124132;27;62125;-76
2022/05/24 11:47:54;;;;;;;;;0.00;0.00;;;;;;;;5125699;27;61865;-76
2022/05/24 11:50:31;;;;;;;;;0.00;0.00;;;;;;;;5125203;27;62508;-76
2022/05/24 11:53:08;;;;;;;;;1.00;0.00;;;;;;;;5118509;27;62408;-76
2022/05/24 11:55:39;;;;;;;;;0.00;0.00;;;;;;;;5105218;27;61832;-76
2022/05/24 11:58:25;;;;;;;;;0.00;0.00;;;;;;;;5103505;27;61717;-76
2022/05/24 12:01:02;;;;;;;;;1.00;0.00;;;;;;;;5103838;27;61832;-76
2022/05/24 12:09:26;;;;;;;;;0.00;0.00;;;;;;;;5104115;27;62000;-76
2022/05/24 12:12:27;;;;;;;;;0.00;0.00;;;;;;;;5106332;27;61746;-76
2022/05/24 12:15:06;;;;;;;;;0.00;0.00;;;;;;;;5062347;28;62022;-76
2022/05/24 12:17:31;;;;;;;;;0.00;0.00;;;;;;;;5045397;28;61852;-76
2022/05/24 12:19:57;;;;;;;;;0.00;0.00;;;;;;;;5062216;28;62134;-76
2022/05/24 12:22:26;;;;;;;;;0.00;0.00;;;;;;;;5044051;28;64096;-76
2022/05/24 12:24:57;;;;;;;;;0.00;0.00;;;;;;;;5062044;28;62269;-76
2022/05/24 12:27:36;;;;;;;;;0.00;0.00;;;;;;;;5044340;28;62095;-76
2022/05/24 12:30:01;;;;;;;;;0.00;0.00;;;;;;;;5044883;28;61850;-76
2022/05/24 12:32:30;;;;;;;;;0.00;0.00;;;;;;;;5043707;28;63631;-75
2022/05/24 12:35:05;;;;;;;;;1.00;0.00;;;;;;;;5059506;28;61884;-76
2022/05/24 12:37:32;;;;;;;;;0.00;0.00;;;;;;;;5068529;28;61889;-76
2022/05/24 12:40:06;;;;;;;;;0.67;0.00;;;;;;;;5080827;28;62149;-76
2022/05/24 12:42:31;;;;;;;;;0.00;0.00;;;;;;;;5063917;28;62762;-76
2022/05/24 12:45:00;;;;;;;;;0.00;0.00;;;;;;;;5081971;28;61919;-76
2022/05/24 12:47:25;;;;;;;;;0.00;0.00;;;;;;;;5070473;28;62133;-76
2022/05/24 12:49:50;;;;;;;;;0.00;0.00;;;;;;;;5100417;27;61744;-76
2022/05/24 12:52:24;;;;;;;;;0.33;0.00;;;;;;;;5104221;27;63113;-76
2022/05/24 12:54:50;;;;;;;;;1.00;0.00;;;;;;;;5123848;27;61812;-76
2022/05/24 12:57:19;;;;;;;;;0.00;0.00;;;;;;;;5123425;27;61970;-76
2022/05/24 12:59:50;;;;;;;;;0.00;0.00;;;;;;;;5123940;27;61832;-76
2022/05/24 13:02:21;;;;;;;;;0.00;0.00;;;;;;;;5120946;27;62286;-76
2022/05/24 13:04:47;;;;;;;;;0.00;0.00;;;;;;;;5120316;27;61930;-76
2022/05/24 13:07:19;;;;;;;;;0.00;0.00;;;;;;;;5124579;27;61851;-76
2022/05/24 13:09:44;;;;;;;;;0.00;0.00;;;;;;;;5125078;27;61880;-76
2022/05/24 13:12:11;;;;;;;;;1.00;0.00;;;;;;;;5123970;27;61714;-76
2022/05/24 13:14:42;;;;;;;;;0.00;0.00;;;;;;;;5123695;27;61835;-76
2022/05/24 13:17:08;;;;;;;;;0.00;0.00;;;;;;;;5123252;27;61905;-77
2022/05/24 13:19:52;;;;;;;;;0.00;0.00;;;;;;;;5122921;27;62447;-76
2022/05/24 13:22:17;;;;;;;;;0.67;0.00;;;;;;;;5124097;27;61809;-76
2022/05/24 13:25:09;;;;;;;;;0.00;0.00;;;;;;;;5122799;27;61956;-76
2022/05/24 13:27:53;;;;;;;;;0.00;0.00;;;;;;;;5120878;27;61796;-76
2022/05/24 13:33:33;;;;;;;;;0.00;0.00;;;;;;;;5123591;27;61938;-76
2022/05/24 13:35:59;;;;;;;;;0.00;0.00;;;;;;;;5123144;27;61920;-76
2022/05/24 13:38:26;;;;;;;;;3.33;0.00;;;;;;;;5122825;27;61732;-76
2022/05/24 13:40:56;;;;;;;;;0.00;0.00;;;;;;;;5124334;27;61944;-76
2022/05/24 13:43:33;;;;;;;;;0.00;0.00;;;;;;;;5121043;27;62667;-76
2022/05/24 13:46:13;;;;;;;;;0.00;0.00;;;;;;;;5122772;27;61799;-76
2022/05/24 13:48:42;;;;;;;;;0.00;0.00;;;;;;;;5122857;27;61842;-76
2022/05/24 13:51:14;;;;;;;;;0.00;0.00;;;;;;;;5124268;27;61677;-77
2022/05/24 13:53:39;;;;;;;;;0.00;0.00;;;;;;;;5117510;27;62905;-76
2022/05/24 13:56:40;;;;;;;;;0.00;0.00;;;;;;;;5121988;27;62110;-76
2022/05/24 13:59:17;;;;;;;;;0.00;0.00;;;;;;;;5059201;28;62060;-76
2022/05/24 14:01:43;;;;;;;;;0.00;0.00;;;;;;;;5043103;28;61777;-76
2022/05/24 14:04:34;;;;;;;;;0.00;0.00;;;;;;;;5059114;28;61837;-77
2022/05/24 14:07:06;;;;;;;;;0.00;0.00;;;;;;;;5052234;28;62093;-77
2022/05/24 14:09:33;;;;;;;;;0.00;0.00;;;;;;;;5042456;28;62364;-77
2022/05/24 14:12:00;;;;;;;;;0.00;0.00;;;;;;;;5059679;28;62056;-77
2022/05/24 14:14:28;;;;;;;;;0.00;0.00;;;;;;;;5058299;28;62618;-77
2022/05/24 14:16:54;;;;;;;;;0.00;0.00;;;;;;;;5059765;28;61961;-77
2022/05/24 14:19:19;;;;;;;;;0.33;0.00;;;;;;;;5060116;28;61890;-77
2022/05/24 14:21:44;;;;;;;;;0.00;0.00;;;;;;;;5060079;28;62006;-77
2022/05/24 14:24:14;;;;;;;;;0.00;0.00;;;;;;;;5058411;28;62738;-77
2022/05/24 14:26:40;;;;;;;;;0.00;0.00;;;;;;;;5058210;28;61935;-77
2022/05/24 14:29:06;;;;;;;;;0.00;0.00;;;;;;;;5056538;28;62079;-77
2022/05/24 14:31:32;;;;;;;;;0.00;0.00;;;;;;;;5057951;28;61913;-76
2022/05/24 14:33:57;;;;;;;;;0.00;0.00;;;;;;;;5113479;27;61962;-77
2022/05/24 14:36:23;;;;;;;;;0.00;0.00;;;;;;;;5123768;27;61740;-76
2022/05/24 14:38:48;;;;;;;;;0.00;0.00;;;;;;;;5123299;27;61763;-77
2022/05/24 14:41:16;;;;;;;;;0.00;0.00;;;;;;;;5122086;27;61878;-77
2022/05/24 14:43:44;;;;;;;;;0.67;0.00;;;;;;;;5119033;27;62395;-77
2022/05/24 14:46:10;;;;;;;;;0.00;0.00;;;;;;;;5120496;27;62033;-77
2022/05/24 14:48:35;;;;;;;;;0.00;0.00;;;;;;;;5118337;27;61925;-77
2022/05/24 14:51:00;;;;;;;;;0.00;0.00;;;;;;;;5121672;27;62989;-77
2022/05/24 14:53:27;;;;;;;;;0.00;0.00;;;;;;;;5117097;27;64608;-77
2022/05/24 14:56:12;;;;;;;;;0.33;0.00;;;;;;;;5122622;27;61954;-76
2022/05/24 14:58:37;;;;;;;;;1.00;0.00;;;;;;;;5120922;27;61975;-77
2022/05/24 15:01:03;;;;;;;;;0.00;0.00;;;;;;;;5120815;27;62076;-77
2022/05/24 15:03:28;;;;;;;;;0.00;0.00;;;;;;;;5120649;27;62639;-77
2022/05/24 15:05:53;;;;;;;;;0.00;0.00;;;;;;;;5121019;27;61960;-78
2022/05/24 15:16:31;;;;;;;;;0.00;0.00;;;;;;;;5120099;27;61937;-76
2022/05/24 15:18:56;;;;;;;;;0.00;0.00;;;;;;;;5123285;27;62105;-76
2022/05/24 15:21:23;;;;;;;;;0.00;0.00;;;;;;;;5122056;27;61907;-76
2022/05/24 15:23:53;;;;;;;;;1.00;1.00;;;;;;;;5120625;27;64936;-77
2022/05/24 15:26:20;;;;;;;;;0.67;0.67;;;;;;;;5123208;27;62001;-77
2022/05/24 15:28:51;;;;;;;;;0.67;0.67;;;;;;;;5121557;27;61926;-76
2022/05/24 15:31:17;;;;;;;;;0.67;0.67;;;;;;;;5117671;27;61937;-76
2022/05/24 15:33:42;;;;;;;;;3.67;3.67;;;;;;;;5119142;27;62776;-76
2022/05/24 15:36:07;;;;;;;;;3.00;2.00;;;;;;;;5120645;27;62037;-76
2022/05/24 15:38:33;;;;;;;;;0.00;0.00;;;;;;;;5119827;27;61982;-76
2022/05/24 15:41:00;;;;;;;;;0.00;0.00;;;;;;;;5120203;27;62479;-76
2022/05/24 15:43:25;;;;;;;;;0.25;0.00;;;;;;;;5120428;27;61874;-76